Time;durP1;ratioP1;P1;durP2;ratioP2;P2;SDS_P1;SDS_P2;PMS_P1;PMS_P2;Temp;Humidity;BMP_temperature;BMP_pressure;BME280_temperature;BME280_humidity;BME280_pressure;Samples;Min_cycle;Max_cycle;Signal;HPM_P1;HPM_P2
2021/07/06 00:00:58;;;;;;;2.53;1.63;;;;;;;21.99;55.98;100469.41;4983825;28;20036;-78
2021/07/06 00:03:23;;;;;;;2.42;1.55;;;;;;;21.97;56.08;100452.88;4989500;28;20067;-78
2021/07/06 00:05:49;;;;;;;2.40;1.70;;;;;;;21.99;56.42;100456.31;5022155;28;20036;-78
2021/07/06 00:08:14;;;;;;;2.15;1.65;;;;;;;21.98;56.04;100455.47;5006049;28;20034;-79
2021/07/06 00:10:40;;;;;;;2.80;1.60;;;;;;;21.99;56.15;100453.69;5005601;28;20444;-78
2021/07/06 00:13:06;;;;;;;2.97;1.60;;;;;;;22.02;56.15;100452.75;4989585;28;20041;-78
2021/07/06 00:15:31;;;;;;;2.63;1.60;;;;;;;22.01;56.33;100451.03;5005834;28;20444;-78
2021/07/06 00:17:57;;;;;;;3.63;1.88;;;;;;;22.00;56.13;100447.56;5038559;28;20032;-78
2021/07/06 00:20:26;;;;;;;3.03;1.95;;;;;;;21.96;56.50;100446.81;5022001;28;20018;-78
2021/07/06 00:22:52;;;;;;;3.70;2.03;;;;;;;21.93;56.32;100440.84;5005912;28;20029;-78
2021/07/06 00:25:18;;;;;;;2.85;1.88;;;;;;;21.94;56.28;100427.66;5022287;28;20527;-78
2021/07/06 00:27:45;;;;;;;2.67;1.80;;;;;;;21.94;56.47;100418.94;5005549;28;20124;-78
2021/07/06 00:30:11;;;;;;;2.47;1.90;;;;;;;21.93;56.73;100420.72;5006044;28;20029;-78
2021/07/06 00:32:36;;;;;;;2.83;1.90;;;;;;;21.95;56.32;100413.66;4989973;28;20112;-79
2021/07/06 00:35:03;;;;;;;2.58;1.80;;;;;;;21.93;56.29;100412.88;5005698;28;20033;-78
2021/07/06 00:37:28;;;;;;;1.95;1.75;;;;;;;21.94;56.45;100406.69;5005609;28;20033;-78
2021/07/06 00:39:54;;;;;;;2.80;1.70;;;;;;;21.95;56.86;100400.56;4989440;28;20053;-78
2021/07/06 00:42:19;;;;;;;2.95;1.92;;;;;;;21.97;56.65;100400.50;4989245;28;20021;-78
2021/07/06 00:44:46;;;;;;;3.70;1.70;;;;;;;21.96;56.51;100391.78;4989082;28;20150;-78
2021/07/06 00:47:11;;;;;;;2.40;1.70;;;;;;;21.95;56.57;100395.31;5021956;28;20041;-78
2021/07/06 00:49:37;;;;;;;2.83;1.70;;;;;;;21.94;56.74;100395.38;5021824;28;20017;-78
2021/07/06 00:52:04;;;;;;;2.75;1.92;;;;;;;21.93;56.51;100386.66;5005446;28;20035;-78
2021/07/06 00:54:30;;;;;;;3.10;1.90;;;;;;;21.93;56.73;100384.03;5021760;28;20053;-79
2021/07/06 00:56:56;;;;;;;3.78;1.63;;;;;;;21.94;56.68;100374.41;5022105;28;20459;-78
2021/07/06 00:59:22;;;;;;;2.35;1.70;;;;;;;21.95;56.58;100370.91;4988905;28;20502;-78
2021/07/06 01:01:49;;;;;;;1.77;1.42;;;;;;;21.95;56.69;100374.38;5021757;28;20029;-78
2021/07/06 01:04:14;;;;;;;1.83;1.30;;;;;;;21.97;56.65;100379.53;5021810;28;20037;-78
2021/07/06 01:06:40;;;;;;;3.50;1.63;;;;;;;21.96;56.47;100368.22;5005446;28;20030;-78
2021/07/06 01:09:05;;;;;;;2.65;1.40;;;;;;;21.95;56.57;100377.00;5005413;28;20068;-86
2021/07/06 01:11:30;;;;;;;2.15;1.38;;;;;;;21.97;56.43;100374.28;5021432;28;20057;-86
2021/07/06 01:13:56;;;;;;;3.15;1.33;;;;;;;21.96;56.57;100368.22;5002129;28;20072;-86
2021/07/06 01:16:21;;;;;;;1.92;1.40;;;;;;;21.97;56.56;100355.97;5002109;28;20037;-85
2021/07/06 01:18:47;;;;;;;2.75;1.50;;;;;;;21.93;56.96;100352.59;5002384;28;20079;-86
2021/07/06 01:21:13;;;;;;;2.20;1.52;;;;;;;21.94;56.59;100338.59;5018354;28;20029;-84
2021/07/06 01:23:38;;;;;;;2.72;1.60;;;;;;;21.95;56.67;100337.69;5018495;28;20021;-86
2021/07/06 01:26:06;;;;;;;2.53;1.70;;;;;;;21.95;56.74;100321.97;5002047;28;20033;-87
2021/07/06 01:28:33;;;;;;;1.40;1.30;;;;;;;21.92;56.74;100327.31;5018217;28;20060;-85
2021/07/06 01:30:59;;;;;;;2.08;1.67;;;;;;;21.93;56.79;100321.16;5018307;28;20187;-86
2021/07/06 01:33:31;;;;;;;2.88;1.40;;;;;;;21.92;56.65;100316.81;4985636;28;20472;-78
2021/07/06 01:36:01;;;;;;;3.00;1.40;;;;;;;21.94;56.69;100324.63;5018608;28;20078;-78
2021/07/06 01:38:27;;;;;;;1.92;1.15;;;;;;;21.91;56.78;100320.38;5002484;28;20029;-78
2021/07/06 01:40:53;;;;;;;2.50;1.30;;;;;;;21.93;56.61;100312.47;5017817;28;20041;-78
2021/07/06 01:43:18;;;;;;;1.88;1.20;;;;;;;21.93;56.94;100308.06;5018031;28;20119;-78
2021/07/06 01:45:44;;;;;;;2.35;1.17;;;;;;;21.92;56.67;100308.97;5018064;28;20375;-78
2021/07/06 01:48:10;;;;;;;2.63;1.30;;;;;;;21.92;56.70;100298.50;4985653;28;20387;-78
2021/07/06 01:50:38;;;;;;;1.80;1.33;;;;;;;21.94;57.00;100285.34;5017899;28;20029;-78
2021/07/06 01:53:07;;;;;;;6.20;1.27;;;;;;;21.95;56.89;100280.06;5017960;28;20018;-78
2021/07/06 01:55:36;;;;;;;1.30;1.00;;;;;;;21.94;56.84;100280.09;5017655;28;20033;-78
2021/07/06 01:58:04;;;;;;;1.92;1.10;;;;;;;21.94;56.91;100280.09;5017695;28;20021;-78
2021/07/06 02:00:32;;;;;;;1.23;1.10;;;;;;;21.95;56.71;100266.13;5017921;28;20028;-78
2021/07/06 02:02:59;;;;;;;2.33;1.45;;;;;;;21.95;56.71;100259.09;5018304;28;20025;-78
2021/07/06 02:05:27;;;;;;;1.23;1.02;;;;;;;21.95;56.69;100251.25;5002351;28;20048;-78
2021/07/06 02:07:53;;;;;;;1.33;1.02;;;;;;;21.96;56.85;100241.59;5017775;28;20030;-78
2021/07/06 02:10:20;;;;;;;3.22;1.35;;;;;;;21.95;57.02;100242.53;5017593;28;20052;-78
2021/07/06 02:12:46;;;;;;;2.50;1.30;;;;;;;21.92;56.85;100240.00;5017593;28;20048;-78
2021/07/06 02:15:15;;;;;;;1.83;1.30;;;;;;;21.93;56.90;100236.50;5017418;28;20025;-78
2021/07/06 02:17:40;;;;;;;2.15;1.30;;;;;;;21.94;57.01;100232.94;5001317;28;20029;-78
2021/07/06 02:20:08;;;;;;;1.23;1.13;;;;;;;21.92;57.18;100227.75;5017155;28;20032;-78
2021/07/06 02:22:39;;;;;;;2.47;1.20;;;;;;;21.93;56.92;100223.41;5034884;28;20064;-81
2021/07/06 02:25:05;;;;;;;1.75;1.10;;;;;;;21.93;57.09;100223.41;5017104;28;20057;-79
2021/07/06 02:27:31;;;;;;;2.80;1.30;;;;;;;21.94;56.96;100215.47;5021744;28;20025;-81
2021/07/06 02:29:57;;;;;;;1.45;1.10;;;;;;;21.93;56.69;100211.16;5001037;28;20048;-87
2021/07/06 02:32:22;;;;;;;1.10;1.00;;;;;;;21.94;56.90;100202.38;5000753;28;20033;-87
2021/07/06 02:34:48;;;;;;;2.10;1.40;;;;;;;21.94;56.82;100199.75;5017109;28;20049;-87
2021/07/06 02:37:13;;;;;;;2.00;1.00;;;;;;;21.94;56.90;100196.28;5000543;28;20471;-87
2021/07/06 02:39:39;;;;;;;2.10;1.40;;;;;;;21.94;57.01;100191.03;5000698;28;20027;-87
2021/07/06 02:42:04;;;;;;;1.88;1.10;;;;;;;21.92;57.17;100191.09;5017197;28;20029;-86
2021/07/06 02:44:30;;;;;;;1.98;1.17;;;;;;;21.91;57.04;100176.28;5000558;28;20029;-87
2021/07/06 02:46:55;;;;;;;2.30;1.27;;;;;;;21.93;57.21;100173.63;4984279;28;20025;-87
2021/07/06 02:49:20;;;;;;;2.15;1.17;;;;;;;21.91;57.14;100168.44;5000463;28;20490;-87
2021/07/06 02:51:46;;;;;;;1.27;1.00;;;;;;;21.94;57.10;100159.59;4984671;28;20030;-87
2021/07/06 02:54:12;;;;;;;2.35;1.15;;;;;;;21.92;56.96;100170.13;5017412;28;20053;-87
2021/07/06 02:56:37;;;;;;;1.63;1.10;;;;;;;21.92;57.05;100157.03;5000963;28;20065;-86
2021/07/06 02:59:03;;;;;;;1.38;1.10;;;;;;;21.92;56.85;100143.94;5017273;28;20030;-87
2021/07/06 03:01:28;;;;;;;1.23;1.00;;;;;;;21.91;56.98;100134.38;5000761;28;20541;-86
2021/07/06 03:03:54;;;;;;;2.20;1.00;;;;;;;21.92;57.07;100132.59;5017002;28;20034;-87
2021/07/06 03:06:19;;;;;;;3.15;1.00;;;;;;;21.92;57.27;100138.69;5017756;28;20495;-87
2021/07/06 03:08:44;;;;;;;2.33;1.02;;;;;;;21.90;57.35;100123.97;5034778;28;20060;-86
2021/07/06 03:11:10;;;;;;;2.00;0.98;;;;;;;21.89;57.22;100133.59;5000244;28;20084;-86
2021/07/06 03:13:35;;;;;;;1.73;1.05;;;;;;;21.88;57.39;100137.09;5000350;28;20120;-86
2021/07/06 03:16:01;;;;;;;2.03;1.00;;;;;;;21.90;57.14;100123.97;5016468;28;20029;-87
2021/07/06 03:18:27;;;;;;;4.13;1.02;;;;;;;21.90;57.12;100124.81;5016379;28;20041;-87
2021/07/06 03:20:52;;;;;;;1.40;0.88;;;;;;;21.89;57.36;100135.38;5016225;28;20018;-87
2021/07/06 03:23:18;;;;;;;1.27;1.00;;;;;;;21.88;57.09;100131.88;5016350;28;20463;-87
2021/07/06 03:25:44;;;;;;;2.08;1.02;;;;;;;21.87;57.11;100137.19;5016211;28;20036;-87
2021/07/06 03:28:10;;;;;;;1.35;0.70;;;;;;;21.89;57.25;100125.72;5016136;28;20021;-87
2021/07/06 03:30:37;;;;;;;6.80;0.90;;;;;;;21.90;57.15;100122.19;5016311;28;20029;-86
2021/07/06 03:33:05;;;;;;;2.80;0.90;;;;;;;21.90;56.97;100123.97;5000004;28;20033;-84
2021/07/06 03:35:31;;;;;;;2.35;1.00;;;;;;;21.89;57.22;100114.41;5015750;28;20512;-78
2021/07/06 03:37:57;;;;;;;3.30;0.80;;;;;;;21.88;57.00;100118.78;5015921;28;20061;-78
2021/07/06 03:40:23;;;;;;;1.80;1.02;;;;;;;21.89;57.04;100117.88;4999898;28;20026;-79
2021/07/06 03:42:50;;;;;;;1.23;0.80;;;;;;;21.90;57.00;100105.63;4999607;28;20036;-77
2021/07/06 03:45:16;;;;;;;1.80;0.88;;;;;;;21.90;57.01;100116.94;5033966;28;20032;-77
2021/07/06 03:47:43;;;;;;;2.33;1.00;;;;;;;21.89;57.31;100119.66;5035777;28;20036;-78
2021/07/06 03:50:11;;;;;;;1.50;0.93;;;;;;;21.90;57.09;100119.56;5015972;28;20048;-77
2021/07/06 03:52:37;;;;;;;2.47;0.90;;;;;;;21.92;57.18;100109.03;5015648;28;20029;-78
2021/07/06 03:55:04;;;;;;;2.33;0.88;;;;;;;21.94;57.03;100109.84;4999390;28;20029;-78
2021/07/06 03:57:29;;;;;;;2.25;0.80;;;;;;;21.93;56.94;100108.97;5015520;28;20030;-78
2021/07/06 04:00:16;;;;;;;1.17;0.90;;;;;;;21.94;56.89;100104.59;4999464;28;20099;-78
2021/07/06 04:02:41;;;;;;;2.20;0.90;;;;;;;21.92;57.07;100103.78;5001311;28;20131;-78
2021/07/06 04:05:10;;;;;;;2.00;0.95;;;;;;;21.89;57.08;100102.16;4983152;28;20481;-77
2021/07/06 04:07:36;;;;;;;1.00;0.82;;;;;;;21.93;57.08;100116.84;5015244;28;20036;-78
2021/07/06 04:10:04;;;;;;;1.45;0.93;;;;;;;21.94;56.74;100115.91;5015394;28;20060;-78
2021/07/06 04:12:29;;;;;;;1.73;0.95;;;;;;;21.94;57.02;100109.84;5031905;28;20466;-77
2021/07/06 04:14:55;;;;;;;1.42;0.70;;;;;;;21.93;57.10;100111.59;5033335;28;20065;-78
2021/07/06 04:17:20;;;;;;;1.20;0.85;;;;;;;21.90;57.23;100111.72;4982927;28;20037;-78
2021/07/06 04:19:45;;;;;;;2.28;0.95;;;;;;;21.92;57.07;100111.66;4982752;28;20030;-78
2021/07/06 04:22:11;;;;;;;3.53;1.00;;;;;;;21.92;56.89;100112.50;4982860;28;20057;-78
2021/07/06 04:24:36;;;;;;;0.90;0.70;;;;;;;21.94;57.25;100112.44;5015603;28;20037;-77
2021/07/06 04:27:03;;;;;;;1.63;0.70;;;;;;;21.93;56.90;100114.22;5015617;28;20472;-77
2021/07/06 04:29:28;;;;;;;0.80;0.70;;;;;;;21.95;57.19;100125.50;4999159;28;20021;-77
2021/07/06 04:31:54;;;;;;;1.92;0.65;;;;;;;21.97;57.08;100125.41;5015292;28;20030;-77
2021/07/06 04:34:21;;;;;;;3.10;0.70;;;;;;;21.97;56.68;100122.78;5015146;28;20017;-78
2021/07/06 04:36:47;;;;;;;0.65;0.55;;;;;;;21.96;56.94;100121.94;5015089;28;20495;-78
2021/07/06 04:39:12;;;;;;;1.00;0.85;;;;;;;21.95;56.95;100125.50;5015130;28;20044;-77
2021/07/06 04:41:38;;;;;;;1.27;0.70;;;;;;;21.94;56.68;100129.00;4998829;28;20029;-78
2021/07/06 04:44:03;;;;;;;2.35;0.80;;;;;;;21.94;57.00;100129.00;4998831;28;20037;-77
2021/07/06 04:46:29;;;;;;;1.70;0.80;;;;;;;21.94;56.82;100123.78;5032900;28;20111;-78
2021/07/06 04:48:54;;;;;;;1.52;0.90;;;;;;;21.96;57.01;100121.09;4984576;28;20022;-78
2021/07/06 04:51:20;;;;;;;1.85;0.80;;;;;;;22.01;56.92;100131.41;5002487;28;20033;-78
2021/07/06 04:53:45;;;;;;;0.82;0.63;;;;;;;22.03;56.59;100126.94;5002521;28;20029;-77
2021/07/06 04:56:11;;;;;;;0.57;0.57;;;;;;;22.02;56.92;100126.09;5002594;28;20044;-78
2021/07/06 04:58:37;;;;;;;1.10;0.70;;;;;;;22.04;56.74;100115.56;4986480;28;20072;-85
2021/07/06 05:01:03;;;;;;;0.88;0.60;;;;;;;22.02;56.92;100112.16;5018849;28;20029;-88
2021/07/06 05:03:30;;;;;;;1.35;0.68;;;;;;;22.03;56.68;100119.94;5018683;28;20029;-86
2021/07/06 05:05:56;;;;;;;1.38;0.73;;;;;;;22.02;56.84;100117.41;5018598;28;20033;-87
2021/07/06 05:08:22;;;;;;;1.60;0.80;;;;;;;22.02;56.77;100118.25;5019048;28;20036;-86
2021/07/06 05:10:47;;;;;;;1.65;0.70;;;;;;;22.02;56.79;100113.00;5015429;28;20049;-85
2021/07/06 05:13:14;;;;;;;0.98;0.65;;;;;;;22.06;56.55;100125.06;5015408;28;20053;-91
2021/07/06 05:15:39;;;;;;;1.13;0.60;;;;;;;22.17;56.16;100122.88;5015653;28;20432;-91
2021/07/06 05:18:05;;;;;;;1.40;0.70;;;;;;;22.24;55.92;100120.91;4999078;28;20045;-88
2021/07/06 05:20:31;;;;;;;2.58;0.60;;;;;;;22.29;55.99;100118.09;4999202;28;20034;-86
2021/07/06 05:22:56;;;;;;;2.05;1.17;;;;;;;22.32;56.19;100124.06;5015584;28;20030;-91
2021/07/06 05:25:22;;;;;;;3.13;0.85;;;;;;;22.35;56.21;100123.09;5015722;28;20061;-91
2021/07/06 05:27:48;;;;;;;5.63;2.67;;;;;;;22.36;55.78;100117.78;5016847;28;20120;-93
2021/07/06 05:30:15;;;;;;;6.68;3.05;;;;;;;22.37;55.80;100122.09;5021233;28;20030;-89
2021/07/06 05:32:40;;;;;;;6.80;2.80;;;;;;;22.38;55.99;100123.81;5018416;28;20365;-92
2021/07/06 05:35:08;;;;;;;8.70;3.25;;;;;;;22.38;55.83;100128.19;5016109;28;20041;-93
2021/07/06 05:37:35;;;;;;;5.85;2.60;;;;;;;22.40;55.54;100126.34;4999305;28;20087;-91
2021/07/06 05:40:00;;;;;;;12.20;3.15;;;;;;;22.38;55.93;100131.69;4983317;28;20484;-90
2021/07/06 05:42:26;;;;;;;8.63;2.47;;;;;;;22.39;55.68;100112.41;4982334;28;20033;-90
2021/07/06 05:44:51;;;;;;;6.85;2.55;;;;;;;22.38;56.00;100122.94;4982270;28;20072;-90
2021/07/06 05:47:16;;;;;;;6.10;2.15;;;;;;;22.37;55.88;100106.38;4982416;28;20029;-91
2021/07/06 05:49:42;;;;;;;4.10;2.20;;;;;;;22.40;55.74;100110.63;4982018;28;20120;-90
2021/07/06 05:52:07;;;;;;;5.05;2.03;;;;;;;22.39;55.69;100112.41;4998500;28;20034;-91
2021/07/06 05:54:33;;;;;;;5.18;2.03;;;;;;;22.41;56.00;100106.22;4998366;28;20109;-90
2021/07/06 05:56:58;;;;;;;4.00;1.77;;;;;;;22.39;55.70;100114.19;4998373;28;20511;-90
2021/07/06 05:59:23;;;;;;;5.85;1.70;;;;;;;22.35;56.45;100113.44;4982122;28;20033;-89
2021/07/06 06:01:49;;;;;;;4.15;1.50;;;;;;;22.32;56.14;100099.59;4998061;28;20033;-88
2021/07/06 06:04:16;;;;;;;3.72;1.65;;;;;;;22.27;56.60;100112.91;5015742;28;20030;-91
2021/07/06 06:06:42;;;;;;;2.53;1.50;;;;;;;22.23;56.45;100110.47;4998327;28;20172;-90
2021/07/06 06:09:07;;;;;;;2.78;1.48;;;;;;;22.19;57.00;100118.44;5014706;28;20116;-90
2021/07/06 06:11:33;;;;;;;4.03;1.20;;;;;;;22.15;57.03;100116.84;4998004;28;20050;-88
2021/07/06 06:13:58;;;;;;;4.05;1.13;;;;;;;22.17;56.85;100115.00;4998352;28;20034;-90
2021/07/06 06:16:23;;;;;;;2.22;1.20;;;;;;;22.23;56.93;100107.84;4998060;28;20030;-90
2021/07/06 06:18:54;;;;;;;2.33;1.00;;;;;;;22.18;56.85;100124.56;5014250;28;20472;-90
2021/07/06 06:21:25;;;;;;;3.00;1.00;;;;;;;22.15;56.38;100110.75;5014339;28;20030;-89
2021/07/06 06:23:51;;;;;;;8.48;1.75;;;;;;;22.22;56.70;100117.47;4997899;28;20038;-89
2021/07/06 06:26:16;;;;;;;8.65;1.85;;;;;;;22.26;56.43;100121.69;5014355;28;20037;-89
2021/07/06 06:28:41;;;;;;;14.88;2.10;;;;;;;22.28;56.44;100132.97;4998559;28;20051;-90
2021/07/06 06:31:07;;;;;;;7.80;2.20;;;;;;;22.29;56.25;100128.56;4997762;28;20060;-89
2021/07/06 06:33:33;;;;;;;10.98;2.25;;;;;;;22.36;56.03;100125.66;4997734;28;20117;-89
2021/07/06 06:35:58;;;;;;;8.23;2.28;;;;;;;22.42;55.54;100127.16;4997642;28;20144;-89
2021/07/06 06:38:25;;;;;;;9.02;2.15;;;;;;;22.52;55.17;100131.09;5014908;28;20026;-89
2021/07/06 06:40:51;;;;;;;5.45;2.45;;;;;;;22.70;54.76;100126.84;4999054;28;20041;-89
2021/07/06 06:43:17;;;;;;;8.70;2.35;;;;;;;22.83;54.46;100131.59;5016004;28;20110;-88
2021/07/06 06:45:45;;;;;;;6.82;2.08;;;;;;;23.03;53.67;100128.97;4997741;28;20455;-89
2021/07/06 06:48:11;;;;;;;8.65;2.40;;;;;;;23.19;52.75;100132.66;4997716;28;20121;-87
2021/07/06 06:50:36;;;;;;;8.13;2.30;;;;;;;23.36;52.77;100128.41;4997526;28;20117;-87
2021/07/06 06:53:01;;;;;;;6.75;2.30;;;;;;;23.71;51.58;100129.41;4997199;28;20472;-86
2021/07/06 06:55:27;;;;;;;6.18;2.28;;;;;;;24.09;50.05;100132.06;4981048;28;20026;-86
2021/07/06 06:57:52;;;;;;;6.47;2.22;;;;;;;24.56;49.33;100135.94;5013572;28;20518;-86
2021/07/06 07:00:18;;;;;;;8.35;2.30;;;;;;;24.73;48.68;100128.06;4997178;28;20392;-85
2021/07/06 07:02:44;;;;;;;6.22;2.28;;;;;;;24.18;50.15;100139.50;4998090;28;20091;-88
2021/07/06 07:05:14;;;;;;;4.60;2.05;;;;;;;23.76;51.27;100147.66;4981170;28;20034;-85
2021/07/06 07:07:40;;;;;;;3.53;1.70;;;;;;;24.08;51.12;100138.22;4997683;28;20072;-85
2021/07/06 07:10:07;;;;;;;8.00;2.03;;;;;;;24.34;50.76;100141.38;5013663;28;20073;-83
2021/07/06 07:12:35;;;;;;;3.55;2.00;;;;;;;25.63;47.59;100143.56;5031705;28;20396;-83
2021/07/06 07:15:01;;;;;;;5.00;2.22;;;;;;;26.82;43.86;100142.19;5016872;28;20029;-83
2021/07/06 07:17:27;;;;;;;4.57;2.08;;;;;;;28.06;41.09;100131.88;5016409;28;20029;-83
2021/07/06 07:19:52;;;;;;;4.18;2.08;;;;;;;28.50;39.55;100137.88;5000229;28;20498;-83
2021/07/06 07:22:18;;;;;;;2.85;1.60;;;;;;;28.49;39.46;100137.03;4984011;28;20033;-83
2021/07/06 07:24:43;;;;;;;4.07;2.10;;;;;;;28.39;39.66;100140.38;5016781;28;20057;-83
2021/07/06 07:27:08;;;;;;;3.13;1.80;;;;;;;27.46;42.00;100135.66;5016606;28;20029;-83
2021/07/06 07:29:35;;;;;;;2.72;1.80;;;;;;;27.39;42.09;100131.69;4983985;28;20478;-84
2021/07/06 07:32:01;;;;;;;5.63;2.25;;;;;;;27.96;40.96;100136.09;5016076;28;20030;-84
2021/07/06 07:34:26;;;;;;;3.20;1.80;;;;;;;28.15;40.26;100134.88;5000482;28;20025;-83
2021/07/06 07:36:52;;;;;;;3.88;1.80;;;;;;;28.21;40.33;100134.50;5016313;28;20180;-78
2021/07/06 07:39:18;;;;;;;3.17;1.80;;;;;;;28.22;40.48;100134.41;5016302;28;20040;-78
2021/07/06 07:41:44;;;;;;;2.97;1.70;;;;;;;28.20;40.31;100130.13;5015901;28;20026;-78
2021/07/06 07:44:10;;;;;;;3.88;1.90;;;;;;;27.95;40.67;100126.44;5015890;28;20040;-77
2021/07/06 07:46:35;;;;;;;3.47;1.80;;;;;;;28.02;40.50;100133.03;5015672;28;20467;-77
2021/07/06 07:49:01;;;;;;;5.05;1.90;;;;;;;27.16;42.66;100126.97;4999562;28;20044;-78
2021/07/06 07:51:27;;;;;;;2.80;1.75;;;;;;;27.51;41.64;100123.97;5033512;28;20025;-77
2021/07/06 07:53:53;;;;;;;3.38;1.58;;;;;;;27.85;41.27;100125.31;5015634;28;20108;-77
2021/07/06 07:56:18;;;;;;;3.28;1.42;;;;;;;26.51;43.84;100130.75;5015757;28;20124;-77
2021/07/06 07:58:44;;;;;;;4.13;1.65;;;;;;;26.48;44.11;100129.16;4999526;28;20033;-78
2021/07/06 08:01:09;;;;;;;2.38;1.40;;;;;;;25.23;47.11;100134.31;5015531;28;20124;-78
2021/07/06 08:03:35;;;;;;;2.70;1.50;;;;;;;26.05;45.31;100141.31;5033262;28;20025;-81
2021/07/06 08:06:01;;;;;;;3.35;1.70;;;;;;;26.13;45.41;100147.00;4999133;28;20464;-78
2021/07/06 08:08:26;;;;;;;2.65;1.20;;;;;;;25.65;46.26;100148.72;5015519;28;20040;-78
2021/07/06 08:10:53;;;;;;;2.60;1.20;;;;;;;26.05;45.47;100152.69;5015410;28;20450;-78
2021/07/06 08:13:24;;;;;;;2.38;1.38;;;;;;;26.26;44.88;100150.66;4999207;28;20034;-78
2021/07/06 08:15:50;;;;;;;2.85;1.27;;;;;;;26.20;45.10;100155.44;5015634;28;20029;-78
2021/07/06 08:18:17;;;;;;;2.05;1.20;;;;;;;26.13;44.70;100146.13;5015731;28;20432;-77
2021/07/06 08:20:43;;;;;;;6.22;1.40;;;;;;;26.02;45.40;100147.63;4999170;28;20079;-77
2021/07/06 08:23:09;;;;;;;2.85;1.38;;;;;;;25.66;46.24;100148.66;5035438;28;20498;-78
2021/07/06 08:25:34;;;;;;;1.70;1.20;;;;;;;25.56;46.12;100160.63;5037214;28;20100;-78
2021/07/06 08:28:00;;;;;;;5.28;1.10;;;;;;;25.66;45.86;100146.03;5002975;28;20029;-78
2021/07/06 08:30:26;;;;;;;3.53;1.30;;;;;;;25.70;45.75;100144.09;5003006;28;20606;-78
2021/07/06 08:32:52;;;;;;;1.88;1.20;;;;;;;25.33;46.71;100147.84;5019224;28;20028;-78
2021/07/06 08:35:17;;;;;;;2.13;1.20;;;;;;;24.84;48.41;100159.09;5019358;28;20379;-78
2021/07/06 08:37:43;;;;;;;2.70;1.27;;;;;;;24.43;49.26;100154.06;5036896;28;20041;-78
2021/07/06 08:40:10;;;;;;;1.98;1.08;;;;;;;24.05;50.66;100153.31;5036764;28;20472;-75
2021/07/06 08:42:37;;;;;;;2.63;1.10;;;;;;;23.92;51.05;100167.03;5019240;28;20040;-79
2021/07/06 08:45:04;;;;;;;1.67;1.00;;;;;;;23.80;51.30;100172.84;5019093;28;20040;-79
2021/07/06 08:47:30;;;;;;;2.67;1.20;;;;;;;24.50;49.83;100165.19;5018914;28;20021;-79
2021/07/06 08:49:56;;;;;;;1.77;1.13;;;;;;;25.12;47.82;100163.78;5035376;28;20021;-79
2021/07/06 08:52:22;;;;;;;2.97;1.15;;;;;;;25.25;47.48;100164.03;5036821;28;20483;-79
2021/07/06 08:54:48;;;;;;;2.15;1.15;;;;;;;24.53;49.21;100176.41;5036749;28;20032;-76
2021/07/06 08:57:14;;;;;;;3.83;1.00;;;;;;;24.55;49.39;100168.44;5019412;28;20029;-79
2021/07/06 08:59:40;;;;;;;2.63;0.93;;;;;;;24.33;49.75;100177.34;5037839;28;20079;-79
2021/07/06 09:02:10;;;;;;;3.67;1.10;;;;;;;24.28;50.30;100178.50;5038100;28;20128;-79
2021/07/06 09:04:45;;;;;;;1.67;1.13;;;;;;;24.68;48.94;100197.63;5023033;28;20033;-79
2021/07/06 09:07:11;;;;;;;1.77;1.00;;;;;;;24.14;50.46;100185.25;5037324;28;20099;-78
2021/07/06 09:09:36;;;;;;;2.47;1.13;;;;;;;23.90;51.02;100192.53;5019278;28;20467;-79
2021/07/06 09:12:02;;;;;;;2.35;1.23;;;;;;;23.92;51.02;100190.66;5036087;28;20061;-79
2021/07/06 09:14:29;;;;;;;1.75;1.15;;;;;;;23.69;51.40;100194.34;5002306;28;20498;-78
2021/07/06 09:17:13;;;;;;;2.30;1.10;;;;;;;23.77;51.03;100199.25;5036244;28;20017;-77
2021/07/06 09:19:47;;;;;;;1.77;0.90;;;;;;;23.61;51.39;100192.03;5036183;28;20028;-77
2021/07/06 09:22:26;;;;;;;2.38;1.00;;;;;;;23.98;50.45;100206.16;5036026;28;20026;-77
2021/07/06 09:25:00;;;;;;;2.15;1.08;;;;;;;24.03;50.61;100204.16;5035925;28;20040;-78
2021/07/06 09:27:26;;;;;;;1.77;0.90;;;;;;;24.20;50.27;100199.91;5036002;28;20360;-79
2021/07/06 09:30:04;;;;;;;2.63;1.08;;;;;;;24.17;50.11;100202.66;5036052;28;20498;-78
2021/07/06 09:32:30;;;;;;;2.25;1.00;;;;;;;24.16;50.19;100200.97;5035836;28;20426;-78
2021/07/06 09:34:55;;;;;;;2.67;1.20;;;;;;;23.97;50.76;100209.69;5001160;28;20029;-80
2021/07/06 09:37:21;;;;;;;3.85;1.35;;;;;;;23.72;51.32;100201.22;5018087;28;20037;-79
2021/07/06 09:39:46;;;;;;;3.35;1.10;;;;;;;23.73;50.89;100206.38;5035708;28;20140;-79
2021/07/06 09:42:15;;;;;;;1.63;0.95;;;;;;;23.85;50.71;100212.91;5001586;28;20033;-80
2021/07/06 09:44:42;;;;;;;2.70;1.15;;;;;;;23.78;50.92;100222.00;5018378;28;20044;-79
2021/07/06 09:47:13;;;;;;;3.60;1.05;;;;;;;23.78;50.98;100216.75;5036014;28;20026;-79
2021/07/06 09:49:57;;;;;;;2.90;1.13;;;;;;;23.74;51.16;100230.91;5037040;28;20467;-79
2021/07/06 09:52:23;;;;;;;1.92;0.90;;;;;;;23.60;51.47;100234.13;5017961;28;20040;-79
2021/07/06 09:54:50;;;;;;;6.97;1.30;;;;;;;23.55;51.43;100236.97;5017997;28;20029;-80
2021/07/06 09:57:31;;;;;;;1.42;0.88;;;;;;;23.46;51.85;100233.91;5018429;28;20022;-79
2021/07/06 10:00:07;;;;;;;5.65;1.00;;;;;;;23.41;52.19;100255.09;5034771;28;20071;-80
2021/07/06 10:02:33;;;;;;;2.83;1.20;;;;;;;23.37;52.18;100241.25;5035633;28;20108;-80
2021/07/06 10:05:00;;;;;;;3.88;0.90;;;;;;;23.40;51.94;100250.75;5017838;28;20179;-79
2021/07/06 10:07:26;;;;;;;3.33;1.05;;;;;;;23.39;52.33;100249.91;5035954;28;20456;-79
2021/07/06 10:09:53;;;;;;;4.72;1.20;;;;;;;23.49;52.07;100249.50;5017887;28;20021;-79
2021/07/06 10:12:20;;;;;;;3.33;0.95;;;;;;;23.46;51.69;100244.41;5035371;28;20552;-81
2021/07/06 10:14:47;;;;;;;4.18;1.05;;;;;;;23.41;51.93;100244.59;5035447;28;20025;-80
2021/07/06 10:17:13;;;;;;;2.00;1.10;;;;;;;23.42;51.92;100243.66;5018537;28;20026;-80
2021/07/06 10:19:40;;;;;;;2.55;0.90;;;;;;;23.50;51.68;100245.97;5017437;28;20021;-80
2021/07/06 10:22:07;;;;;;;2.10;0.93;;;;;;;23.62;51.40;100245.41;5017586;28;20483;-79
2021/07/06 10:25:00;;;;;;;3.15;0.90;;;;;;;23.62;51.00;100248.88;5017506;28;20030;-79
2021/07/06 10:27:28;;;;;;;3.57;1.00;;;;;;;23.51;51.54;100240.63;5032465;28;20033;-81
2021/07/06 10:30:16;;;;;;;2.30;0.90;;;;;;;23.35;51.59;100243.09;5037655;28;20260;-79
2021/07/06 10:32:50;;;;;;;2.63;1.08;;;;;;;23.31;52.09;100254.63;5034898;28;20029;-79
2021/07/06 10:35:37;;;;;;;3.70;0.90;;;;;;;23.29;52.29;100243.34;5034870;28;20100;-80
2021/07/06 10:38:31;;;;;;;2.97;1.15;;;;;;;23.37;51.63;100262.25;5017105;28;20041;-80
2021/07/06 10:41:05;;;;;;;2.85;1.00;;;;;;;23.54;51.17;100253.66;5016987;28;20018;-80
2021/07/06 10:43:42;;;;;;;3.00;1.05;;;;;;;23.58;51.14;100254.34;5034666;28;20021;-79
2021/07/06 10:46:20;;;;;;;2.20;0.90;;;;;;;23.54;50.98;100260.66;5016090;28;20434;-80
2021/07/06 10:49:06;;;;;;;3.85;1.10;;;;;;;23.52;50.91;100255.50;5016872;28;20029;-79
2021/07/06 10:51:34;;;;;;;2.50;0.90;;;;;;;23.48;51.43;100258.31;5016925;28;20021;-80
2021/07/06 10:54:11;;;;;;;2.55;1.08;;;;;;;23.32;51.93;100261.59;5016484;28;20048;-80
2021/07/06 10:56:43;;;;;;;2.85;0.90;;;;;;;23.28;51.63;100259.16;5034290;28;20357;-80
2021/07/06 10:59:18;;;;;;;3.33;1.00;;;;;;;23.35;51.55;100268.50;5016756;28;20037;-86
2021/07/06 11:01:51;;;;;;;2.88;0.90;;;;;;;23.42;51.72;100262.91;5017098;28;20025;-87
2021/07/06 11:07:15;;;;;;;2.85;1.00;;;;;;;23.61;50.78;100270.84;5034787;28;20444;-87
2021/07/06 11:09:40;;;;;;;4.75;1.50;;;;;;;23.55;51.06;100272.88;5018932;28;20029;-87
2021/07/06 11:12:26;;;;;;;2.05;0.85;;;;;;;23.49;51.70;100284.50;5034228;28;20509;-87
2021/07/06 11:15:00;;;;;;;2.80;0.90;;;;;;;23.43;51.34;100292.66;5016288;28;20108;-87
2021/07/06 11:17:58;;;;;;;2.47;1.00;;;;;;;23.36;51.27;100278.91;5016265;28;20063;-87
2021/07/06 11:20:38;;;;;;;2.38;0.98;;;;;;;23.36;51.80;100293.81;5033946;28;20036;-87
2021/07/06 11:23:15;;;;;;;2.55;1.00;;;;;;;23.39;51.44;100285.81;5016448;28;20486;-88
2021/07/06 11:25:42;;;;;;;3.28;0.90;;;;;;;23.42;51.22;100286.53;5016249;28;20021;-86
2021/07/06 11:28:17;;;;;;;2.72;0.90;;;;;;;23.40;51.34;100288.38;5000016;28;20029;-88